createdAt,value
2023-03-07T00:01:37.028Z,99446.31
2023-03-07T00:03:38.630Z,99438.50
2023-03-07T00:05:42.332Z,99439.88
2023-03-07T00:07:43.910Z,99442.84
2023-03-07T00:09:46.918Z,99438.56
2023-03-07T00:11:49.411Z,99438.34
2023-03-07T00:13:51.498Z,99434.59
2023-03-07T00:15:53.155Z,99430.31
2023-03-07T00:17:54.711Z,99433.59
2023-03-07T00:19:56.251Z,99426.66
2023-03-07T00:21:59.217Z,99420.81
2023-03-07T00:24:00.908Z,99417.53
2023-03-07T00:26:05.617Z,99423.44
2023-03-07T00:28:07.341Z,99423.41
2023-03-07T00:30:12.139Z,99418.31
2023-03-07T00:32:13.773Z,99419.66
2023-03-07T00:34:15.473Z,99423.16
2023-03-07T00:36:18.936Z,99420.44
2023-03-07T00:38:21.886Z,99415.19
2023-03-07T00:40:23.462Z,99408.28
2023-03-07T00:42:25.018Z,99412.84
2023-03-07T00:44:26.560Z,99406.97
2023-03-07T00:46:28.223Z,99403.44
2023-03-07T00:48:30.186Z,99402.13
2023-03-07T00:50:31.717Z,99392.22
2023-03-07T00:52:33.736Z,99394.03
2023-03-07T00:54:36.874Z,99387.13
2023-03-07T00:56:38.466Z,99390.09
2023-03-07T00:58:40.091Z,99389.63
2023-03-07T01:00:41.615Z,99388.25
2023-03-07T01:02:43.264Z,99389.84
2023-03-07T01:04:44.979Z,99390.38
2023-03-07T01:06:46.558Z,99394.28
2023-03-07T01:08:48.134Z,99381.97
2023-03-07T01:10:51.137Z,99376.09
2023-03-07T01:12:52.737Z,99375.03
2023-03-07T01:14:54.242Z,99373.72
2023-03-07T01:16:55.844Z,99364.09
2023-03-07T01:18:59.821Z,99371.53
2023-03-07T01:21:01.442Z,99362.72
2023-03-07T01:23:03.404Z,99358.44
2023-03-07T01:25:05.504Z,99360.81
2023-03-07T01:27:08.428Z,99357.59
2023-03-07T01:29:11.014Z,99355.97
2023-03-07T01:31:12.872Z,99354.06
2023-03-07T01:33:14.470Z,99359.41
2023-03-07T01:35:16.072Z,99355.44
2023-03-07T01:37:20.582Z,99356.25
2023-03-07T01:39:22.131Z,99350.88
2023-03-07T01:41:24.304Z,99351.16
2023-03-07T01:43:29.269Z,99349.59
2023-03-07T01:46:07.960Z,99348.75
2023-03-07T01:48:09.639Z,99348.44
2023-03-07T01:50:14.949Z,99341.47
2023-03-07T01:52:20.564Z,99335.31
2023-03-07T01:54:24.001Z,99342.84
2023-03-07T01:56:26.378Z,99331.69
2023-03-07T01:58:30.053Z,99339.22
2023-03-07T02:00:31.713Z,99332.38
2023-03-07T02:02:33.961Z,99328.88
2023-03-07T02:04:41.294Z,99325.25
2023-03-07T02:06:43.168Z,99328.03
2023-03-07T02:08:48.119Z,99319.50
2023-03-07T02:10:49.681Z,99319.53
2023-03-07T02:12:53.259Z,99326.53
2023-03-07T02:14:56.257Z,99311.78
2023-03-07T02:16:57.976Z,99314.19
2023-03-07T02:19:00.508Z,99314.41
2023-03-07T02:21:10.201Z,99313.97
2023-03-07T02:23:20.657Z,99310.75
2023-03-07T02:25:29.769Z,99316.19
2023-03-07T02:27:35.744Z,99304.84
2023-03-07T02:29:37.463Z,99309.44
2023-03-07T02:31:39.439Z,99306.94
2023-03-07T02:33:40.956Z,99295.88
2023-03-07T02:35:42.638Z,99301.75
2023-03-07T02:37:47.285Z,99290.53
2023-03-07T02:40:37.665Z,99305.28
2023-03-07T02:42:56.523Z,99298.31
2023-03-07T02:47:52.748Z,99294.13
2023-03-07T02:49:57.164Z,99291.19
2023-03-07T02:54:37.489Z,99293.59
2023-03-07T03:00:00.838Z,99286.59
2023-03-07T03:11:21.092Z,99293.81
2023-03-07T03:13:51.920Z,99279.81
2023-03-07T03:16:02.079Z,99288.56
2023-03-07T03:20:32.179Z,99281.91
2023-03-07T03:22:44.279Z,99279.81
2023-03-07T03:25:19.259Z,99285.75
2023-03-07T03:27:48.402Z,99285.78
2023-03-07T03:33:04.059Z,99291.75
2023-03-07T03:38:02.394Z,99278.75
2023-03-07T03:40:04.661Z,99273.63
2023-03-07T03:42:06.470Z,99274.47
2023-03-07T03:44:08.295Z,99269.59
2023-03-07T03:46:11.494Z,99278.13
2023-03-07T03:48:14.501Z,99275.22
2023-03-07T03:50:16.112Z,99265.63
2023-03-07T03:52:17.663Z,99270.97
2023-03-07T03:54:19.359Z,99264.84
2023-03-07T03:56:23.260Z,99259.31
2023-03-07T03:58:24.793Z,99253.38
2023-03-07T04:00:26.337Z,99256.88
2023-03-07T04:02:28.018Z,99246.69
2023-03-07T04:04:30.979Z,99248.38
2023-03-07T04:06:34.689Z,99247.31
2023-03-07T04:08:36.893Z,99242.25
2023-03-07T04:10:38.778Z,99244.94
2023-03-07T04:12:40.637Z,99243.28
2023-03-07T04:14:42.230Z,99235.84
2023-03-07T04:16:43.815Z,99243.53
2023-03-07T04:18:45.938Z,99237.34
2023-03-07T04:20:50.181Z,99243.50
2023-03-07T04:22:51.718Z,99237.91
2023-03-07T04:24:53.276Z,99234.94
2023-03-07T04:26:54.813Z,99232.81
2023-03-07T04:28:56.484Z,99227.75
2023-03-07T04:30:58.190Z,99227.16
2023-03-07T04:32:59.793Z,99219.72
2023-03-07T04:35:01.313Z,99217.28
2023-03-07T04:37:04.186Z,99214.34
2023-03-07T04:39:05.840Z,99209.25
2023-03-07T04:41:08.009Z,99214.59
2023-03-07T04:43:09.638Z,99208.19
2023-03-07T04:45:11.458Z,99210.31
2023-03-07T04:47:13.016Z,99211.47
2023-03-07T04:49:14.978Z,99212.00
2023-03-07T04:51:16.765Z,99207.97
2023-03-07T04:53:20.104Z,99202.13
2023-03-07T04:55:21.777Z,99198.63
2023-03-07T04:57:23.329Z,99201.53
2023-03-07T04:59:24.941Z,99192.47
2023-03-07T05:01:26.549Z,99195.75
2023-03-07T05:03:29.096Z,99198.66
2023-03-07T05:05:30.647Z,99197.25
2023-03-07T05:07:32.265Z,99193.50
2023-03-07T05:09:35.597Z,99197.81
2023-03-07T05:11:37.145Z,99197.28
2023-03-07T05:13:38.736Z,99193.91
2023-03-07T05:15:40.364Z,99195.69
2023-03-07T05:17:41.989Z,99186.84
2023-03-07T05:19:43.636Z,99184.94
2023-03-07T05:21:45.368Z,99186.78
2023-03-07T05:23:47.111Z,99184.97
2023-03-07T05:25:50.143Z,99184.97
2023-03-07T05:27:51.704Z,99193.06
2023-03-07T05:29:53.403Z,99188.78
2023-03-07T05:31:54.952Z,99186.41
2023-03-07T05:33:56.605Z,99180.88
2023-03-07T05:35:59.829Z,99174.75
2023-03-07T05:38:01.407Z,99174.94
2023-03-07T05:40:04.579Z,99186.41
2023-03-07T05:42:07.974Z,99175.41
2023-03-07T05:44:09.649Z,99172.44
2023-03-07T05:46:11.321Z,99178.63
2023-03-07T05:48:12.880Z,99175.13
2023-03-07T05:50:14.421Z,99179.16
2023-03-07T05:52:16.023Z,99173.78
2023-03-07T05:54:17.548Z,99173.78
2023-03-07T05:56:19.077Z,99177.25
2023-03-07T05:58:22.021Z,99174.03
2023-03-07T06:00:23.548Z,99171.13
2023-03-07T06:02:25.092Z,99164.94
2023-03-07T06:04:26.773Z,99167.84
2023-03-07T06:06:28.381Z,99159.28
2023-03-07T06:08:29.942Z,99165.72
2023-03-07T06:10:31.557Z,99157.91
2023-03-07T06:12:33.143Z,99159.34
2023-03-07T06:14:36.672Z,99155.56
2023-03-07T06:16:38.293Z,99159.25
2023-03-07T06:18:40.018Z,99150.72
2023-03-07T06:20:41.643Z,99159.28
2023-03-07T06:22:43.209Z,99157.66
2023-03-07T06:24:44.837Z,99165.91
2023-03-07T06:26:46.714Z,99173.72
2023-03-07T06:28:48.516Z,99162.41
2023-03-07T06:30:51.712Z,99164.84
2023-03-07T06:32:53.277Z,99162.69
2023-03-07T06:34:54.825Z,99167.31
2023-03-07T06:36:56.416Z,99170.75
2023-03-07T06:38:57.998Z,99168.34
2023-03-07T06:40:59.588Z,99168.03
2023-03-07T06:43:01.377Z,99169.34
2023-03-07T06:45:03.239Z,99170.72
2023-03-07T06:47:06.461Z,99172.56
2023-03-07T06:49:11.373Z,99178.66
2023-03-07T06:51:13.886Z,99175.38
2023-03-07T06:53:15.940Z,99178.06
2023-03-07T06:55:17.976Z,99171.94
2023-03-07T06:57:19.538Z,99173.84
2023-03-07T06:59:21.574Z,99178.16
2023-03-07T07:01:23.151Z,99169.63
2023-03-07T07:03:26.117Z,99173.38
2023-03-07T07:05:27.669Z,99171.56
2023-03-07T07:07:30.113Z,99169.56
2023-03-07T07:09:31.822Z,99172.22
2023-03-07T07:11:33.455Z,99179.13
2023-03-07T07:13:35.114Z,99183.84
2023-03-07T07:15:36.672Z,99171.41
2023-03-07T07:17:38.209Z,99178.31
2023-03-07T07:19:41.159Z,99173.44
2023-03-07T07:21:42.977Z,99176.13
2023-03-07T07:23:44.613Z,99179.81
2023-03-07T07:25:46.257Z,99169.97
2023-03-07T07:27:47.852Z,99188.34
2023-03-07T07:29:49.504Z,99177.81
2023-03-07T07:31:51.128Z,99181.75
2023-03-07T07:33:52.910Z,99183.59
2023-03-07T07:35:58.224Z,99181.06
2023-03-07T07:37:59.936Z,99179.72
2023-03-07T07:40:01.562Z,99181.66
2023-03-07T07:42:03.708Z,99173.75
2023-03-07T07:44:05.527Z,99182.53
2023-03-07T07:46:07.379Z,99179.66
2023-03-07T07:48:09.280Z,99175.97
2023-03-07T07:50:11.193Z,99164.69
2023-03-07T07:52:14.160Z,99175.91
2023-03-07T07:54:15.779Z,99181.16
2023-03-07T07:56:17.405Z,99174.16
2023-03-07T07:58:18.954Z,99173.00
2023-03-07T08:00:21.402Z,99173.75
2023-03-07T08:02:22.985Z,99167.81
2023-03-07T08:04:24.649Z,99176.59
2023-03-07T08:06:28.285Z,99173.72
2023-03-07T08:08:40.077Z,99176.91
2023-03-07T08:10:41.848Z,99166.97
2023-03-07T08:12:43.819Z,99161.00
2023-03-07T08:14:45.374Z,99158.03
2023-03-07T08:16:46.982Z,99146.75
2023-03-07T08:18:49.619Z,99147.09
2023-03-07T08:20:51.221Z,99150.50
2023-03-07T08:22:52.813Z,99160.00
2023-03-07T08:24:55.797Z,99148.94
2023-03-07T08:26:57.335Z,99150.28
2023-03-07T08:28:58.956Z,99152.69
2023-03-07T08:31:06.436Z,99146.59
2023-03-07T08:33:08.039Z,99148.69
2023-03-07T08:35:09.938Z,99150.59
2023-03-07T08:37:11.595Z,99149.28
2023-03-07T08:39:13.260Z,99151.16
2023-03-07T08:41:16.240Z,99151.97
2023-03-07T08:43:17.800Z,99153.78
2023-03-07T08:45:20.210Z,99158.31
2023-03-07T08:47:22.522Z,99147.03
2023-03-07T08:49:24.131Z,99147.03
2023-03-07T08:51:25.700Z,99140.38
2023-03-07T08:53:27.224Z,99136.75
2023-03-07T08:55:29.207Z,99142.72
2023-03-07T08:57:32.108Z,99138.03
2023-03-07T08:59:34.486Z,99135.50
2023-03-07T09:01:36.072Z,99138.03
2023-03-07T09:03:37.728Z,99133.59
2023-03-07T09:05:39.363Z,99137.34
2023-03-07T09:07:41.038Z,99133.06
2023-03-07T09:09:42.841Z,99133.31
2023-03-07T09:11:44.434Z,99136.56
2023-03-07T09:13:52.345Z,99138.38
2023-03-07T09:15:54.617Z,99133.22
2023-03-07T09:17:56.263Z,99133.16
2023-03-07T09:19:58.106Z,99132.66
2023-03-07T09:21:59.776Z,99131.56
2023-03-07T09:24:01.463Z,99136.41
2023-03-07T09:26:03.647Z,99132.13
2023-03-07T09:28:05.248Z,99120.81
2023-03-07T09:30:09.949Z,99121.69
2023-03-07T09:32:11.537Z,99128.72
2023-03-07T09:34:13.148Z,99109.03
2023-03-07T09:36:15.775Z,99127.31
2023-03-07T09:38:17.378Z,99121.97
2023-03-07T09:40:22.144Z,99116.91
2023-03-07T09:42:28.658Z,99115.44
2023-03-07T09:44:42.345Z,99112.19
2023-03-07T09:46:56.229Z,99097.78
2023-03-07T09:49:17.526Z,99097.09
2023-03-07T09:51:24.157Z,99101.47
2023-03-07T09:53:35.017Z,99093.13
2023-03-07T09:55:36.676Z,99096.53
2023-03-07T09:57:47.724Z,99085.56
2023-03-07T09:59:53.741Z,99087.53
2023-03-07T10:02:04.452Z,99085.75
2023-03-07T10:04:12.260Z,99085.75
2023-03-07T10:06:22.246Z,99086.03
2023-03-07T10:08:30.832Z,99077.59
2023-03-07T10:10:37.733Z,99077.47
2023-03-07T10:13:09.274Z,99068.63
2023-03-07T10:15:35.318Z,99066.03
2023-03-07T10:18:06.269Z,99061.25
2023-03-07T10:20:19.400Z,99059.28
2023-03-07T10:22:30.720Z,99064.94
2023-03-07T10:24:53.152Z,99056.25
2023-03-07T10:27:00.424Z,99052.47
2023-03-07T10:29:13.503Z,99047.78
2023-03-07T10:31:22.828Z,99057.94
2023-03-07T10:33:28.347Z,99050.28
2023-03-07T10:35:39.803Z,99042.13
2023-03-07T10:37:47.169Z,99037.44
2023-03-07T10:39:51.637Z,99047.97
2023-03-07T10:41:57.301Z,99036.19
2023-03-07T10:43:58.872Z,99041.38
2023-03-07T10:46:23.612Z,99032.13
2023-03-07T10:48:30.012Z,99039.84
2023-03-07T10:50:41.628Z,99039.91
2023-03-07T10:52:47.466Z,99040.31
2023-03-07T10:54:49.153Z,99035.50
2023-03-07T10:57:06.586Z,99020.19
2023-03-07T10:59:09.712Z,99036.16
2023-03-07T11:01:17.278Z,99028.41
2023-03-07T11:03:26.961Z,99031.97
2023-03-07T11:05:32.438Z,99032.56
2023-03-07T11:07:35.895Z,99029.19
2023-03-07T11:09:47.326Z,99024.38
2023-03-07T11:11:52.620Z,99022.69
2023-03-07T11:14:06.232Z,99020.59
2023-03-07T11:16:15.974Z,99020.66
2023-03-07T11:18:30.256Z,99018.09
2023-03-07T11:20:48.909Z,99010.19
2023-03-07T11:23:07.818Z,99016.66
2023-03-07T11:25:16.231Z,99008.25
2023-03-07T11:27:23.746Z,98994.97
2023-03-07T11:29:26.177Z,99001.16
2023-03-07T11:31:34.340Z,98993.44
2023-03-07T11:33:58.599Z,98982.69
2023-03-07T11:36:08.306Z,98985.88
2023-03-07T11:38:20.788Z,98980.59
2023-03-07T11:40:24.846Z,98975.81
2023-03-07T11:42:32.664Z,98979.75
2023-03-07T11:44:40.339Z,98967.97
2023-03-07T11:46:57.952Z,98976.31
2023-03-07T11:49:12.979Z,98980.09
2023-03-07T11:51:31.799Z,98980.00
2023-03-07T11:53:49.875Z,98980.38
2023-03-07T11:56:00.681Z,98993.28
2023-03-07T11:58:35.264Z,98981.03
2023-03-07T12:00:48.171Z,98978.09
2023-03-07T12:03:15.618Z,98983.97
2023-03-07T12:05:29.931Z,98980.50
2023-03-07T12:07:49.427Z,98972.03
2023-03-07T12:09:58.570Z,98971.75
2023-03-07T12:12:18.187Z,98970.09
2023-03-07T12:14:30.422Z,98960.69
2023-03-07T12:16:42.258Z,98962.63
2023-03-07T12:18:58.560Z,98954.44
2023-03-07T12:21:15.008Z,98948.88
2023-03-07T12:23:20.765Z,98960.16
2023-03-07T12:25:24.998Z,98944.03
2023-03-07T12:27:32.749Z,98948.16
2023-03-07T12:29:38.076Z,98941.69
2023-03-07T12:31:43.452Z,98937.22
2023-03-07T12:33:56.439Z,98936.91
2023-03-07T12:36:02.889Z,98935.19
2023-03-07T12:38:12.167Z,98930.59
2023-03-07T12:40:20.723Z,98926.09
2023-03-07T12:42:32.785Z,98922.47
2023-03-07T12:44:40.205Z,98920.06
2023-03-07T12:46:49.510Z,98922.41
2023-03-07T12:48:56.936Z,98915.75
2023-03-07T12:51:04.554Z,98917.16
2023-03-07T12:53:13.697Z,98912.16
2023-03-07T12:55:23.090Z,98905.66
2023-03-07T12:57:28.870Z,98915.63
2023-03-07T12:59:34.025Z,98901.56
2023-03-07T13:01:40.624Z,98905.22
2023-03-07T13:03:49.409Z,98906.31
2023-03-07T13:05:51.491Z,98909.13
2023-03-07T13:07:54.714Z,98904.09
2023-03-07T13:09:59.153Z,98908.69
2023-03-07T13:12:24.361Z,98906.31
2023-03-07T13:14:39.492Z,98893.47
2023-03-07T13:16:43.566Z,98894.47
2023-03-07T13:18:45.218Z,98901.41
2023-03-07T13:21:07.871Z,98903.31
2023-03-07T13:23:29.367Z,98891.56
2023-03-07T13:26:01.965Z,98896.16
2023-03-07T13:28:30.860Z,98896.81
2023-03-07T13:30:33.704Z,98894.91
2023-03-07T13:33:01.590Z,98902.69
2023-03-07T13:35:03.370Z,98900.28
2023-03-07T13:37:52.401Z,98901.59
2023-03-07T13:40:00.176Z,98897.16
2023-03-07T13:42:01.838Z,98897.94
2023-03-07T13:44:04.862Z,98901.28
2023-03-07T13:46:29.011Z,98907.91
2023-03-07T13:49:01.410Z,98896.38
2023-03-07T13:51:06.707Z,98893.97
2023-03-07T13:53:13.789Z,98895.41
2023-03-07T13:55:27.949Z,98901.75
2023-03-07T13:57:37.582Z,98905.88
2023-03-07T13:59:40.529Z,98907.91
2023-03-07T14:01:46.300Z,98909.03
2023-03-07T14:03:51.807Z,98910.31
2023-03-07T14:05:53.539Z,98908.25
2023-03-07T14:07:57.237Z,98909.97
2023-03-07T14:10:12.709Z,98907.25
2023-03-07T14:12:33.599Z,98910.13
2023-03-07T14:14:52.695Z,98917.53
2023-03-07T14:17:07.529Z,98915.75
2023-03-07T14:19:19.060Z,98909.44
2023-03-07T14:21:29.787Z,98916.53
2023-03-07T14:23:54.815Z,98915.13
2023-03-07T14:26:05.067Z,98910.22
2023-03-07T14:28:21.033Z,98910.56
2023-03-07T14:30:26.678Z,98911.03
2023-03-07T14:32:30.584Z,98914.19
2023-03-07T14:34:33.628Z,98910.41
2023-03-07T14:36:35.326Z,98921.59
2023-03-07T14:38:46.047Z,98924.94
2023-03-07T14:41:11.790Z,98922.25
2023-03-07T14:43:28.243Z,98933.00
2023-03-07T14:45:40.455Z,98924.13
2023-03-07T14:48:06.101Z,98926.53
2023-03-07T14:50:12.770Z,98926.78
2023-03-07T14:52:29.928Z,98929.00
2023-03-07T14:54:33.996Z,98938.00
2023-03-07T14:56:37.812Z,98940.41
2023-03-07T14:58:48.260Z,98942.78
2023-03-07T15:00:59.990Z,98944.31
2023-03-07T15:03:03.540Z,98941.13
2023-03-07T15:05:15.110Z,98943.03
2023-03-07T15:07:21.596Z,98943.03
2023-03-07T15:09:24.141Z,98938.75
2023-03-07T15:11:32.410Z,98940.84
2023-03-07T15:13:38.304Z,98935.47
2023-03-07T15:15:45.201Z,98948.25
2023-03-07T15:17:48.633Z,98954.41
2023-03-07T15:19:54.144Z,98943.47
2023-03-07T15:21:57.907Z,98943.31
2023-03-07T15:24:00.109Z,98949.47
2023-03-07T15:26:04.109Z,98936.00
2023-03-07T15:28:15.920Z,98936.81
2023-03-07T15:30:28.288Z,98944.06
2023-03-07T15:32:33.564Z,98943.47
2023-03-07T15:34:38.482Z,98941.94
2023-03-07T15:36:40.063Z,98946.50
2023-03-07T15:38:44.014Z,98945.41
2023-03-07T15:40:45.955Z,98939.38
2023-03-07T15:42:49.187Z,98938.75
2023-03-07T15:44:54.737Z,98943.03
2023-03-07T15:46:59.224Z,98931.84
2023-03-07T15:49:00.874Z,98942.00
2023-03-07T15:51:06.710Z,98943.38
2023-03-07T15:53:10.211Z,98944.63
2023-03-07T15:55:18.131Z,98951.28
2023-03-07T15:57:22.700Z,98944.47
2023-03-07T15:59:29.606Z,98945.78
2023-03-07T16:01:31.213Z,98947.66
2023-03-07T16:03:33.353Z,98954.13
2023-03-07T16:05:38.190Z,98950.78
2023-03-07T16:07:41.106Z,98953.69
2023-03-07T16:09:42.848Z,98948.53
2023-03-07T16:11:46.087Z,98952.47
2023-03-07T16:13:48.275Z,98955.75
2023-03-07T16:16:13.761Z,98947.75
2023-03-07T16:18:23.615Z,98954.97
2023-03-07T16:20:27.095Z,98945.28
2023-03-07T16:22:28.897Z,98947.41
2023-03-07T16:24:31.867Z,98950.56
2023-03-07T16:26:33.660Z,98947.47
2023-03-07T16:28:35.384Z,98957.38
2023-03-07T16:30:37.310Z,98950.94
2023-03-07T16:32:38.922Z,98950.94
2023-03-07T16:34:41.994Z,98958.28
2023-03-07T16:36:45.096Z,98947.22
2023-03-07T16:38:46.989Z,98941.75
2023-03-07T16:40:49.934Z,98943.13
2023-03-07T16:42:51.636Z,98945.44
2023-03-07T16:44:53.485Z,98941.34
2023-03-07T16:46:58.697Z,98939.31
2023-03-07T16:49:00.404Z,98930.13
2023-03-07T16:51:02.773Z,98937.09
2023-03-07T16:53:04.396Z,98937.56
2023-03-07T16:55:08.798Z,98937.56
2023-03-07T16:57:15.742Z,98935.88
2023-03-07T16:59:20.106Z,98932.50
2023-03-07T17:01:21.761Z,98944.03
2023-03-07T17:03:23.381Z,98952.59
2023-03-07T17:05:27.336Z,98947.03
2023-03-07T17:07:28.946Z,98960.06
2023-03-07T17:09:30.552Z,98957.06
2023-03-07T17:11:32.767Z,98961.03
2023-03-07T17:13:35.750Z,98952.06
2023-03-07T17:15:37.295Z,98958.66
2023-03-07T17:17:39.069Z,98965.63
2023-03-07T17:19:40.654Z,98961.94
2023-03-07T17:21:42.182Z,98954.19
2023-03-07T17:23:44.140Z,98955.66
2023-03-07T17:25:45.689Z,98968.00
2023-03-07T17:27:51.213Z,98965.97
2023-03-07T17:29:54.881Z,98962.19
2023-03-07T17:31:56.465Z,98965.38
2023-03-07T17:34:01.259Z,98965.69
2023-03-07T17:36:03.446Z,98963.78
2023-03-07T17:38:05.422Z,98960.50
2023-03-07T17:40:07.559Z,98963.78
2023-03-07T17:42:09.342Z,98979.31
2023-03-07T17:44:11.246Z,98979.63
2023-03-07T17:46:14.286Z,98985.47
2023-03-07T17:48:16.039Z,98984.88
2023-03-07T17:50:17.978Z,98986.88
2023-03-07T17:52:19.640Z,98987.38
2023-03-07T17:54:21.248Z,98993.53
2023-03-07T17:56:23.063Z,98995.94
2023-03-07T17:58:24.684Z,98992.34
2023-03-07T18:00:26.517Z,98988.16
2023-03-07T18:02:29.454Z,98997.75
2023-03-07T18:04:38.316Z,98991.47
2023-03-07T18:06:41.017Z,98995.53
2023-03-07T18:08:42.733Z,98995.44
2023-03-07T18:10:44.330Z,98992.16
2023-03-07T18:12:46.158Z,98990.25
2023-03-07T18:14:47.678Z,98994.25
2023-03-07T18:16:49.470Z,99003.75
2023-03-07T18:18:59.512Z,99000.44
2023-03-07T18:21:04.932Z,99008.13
2023-03-07T18:23:06.483Z,99006.66
2023-03-07T18:25:13.225Z,99004.88
2023-03-07T18:27:14.824Z,99007.56
2023-03-07T18:29:16.640Z,99015.31
2023-03-07T18:31:20.118Z,99024.06
2023-03-07T18:33:21.720Z,99024.59
2023-03-07T18:35:25.086Z,99030.94
2023-03-07T18:37:27.688Z,99022.47
2023-03-07T18:39:29.621Z,99017.91
2023-03-07T18:41:31.284Z,99031.75
2023-03-07T18:43:32.995Z,99023.88
2023-03-07T18:45:34.528Z,99019.19
2023-03-07T18:47:36.189Z,99021.22
2023-03-07T18:49:37.815Z,99030.94
2023-03-07T18:51:40.695Z,99032.84
2023-03-07T18:53:42.917Z,99033.63
2023-03-07T18:55:44.455Z,99030.03
2023-03-07T18:57:46.083Z,99031.22
2023-03-07T18:59:47.628Z,99041.47
2023-03-07T19:01:49.331Z,99029.78
2023-03-07T19:03:52.349Z,99040.63
2023-03-07T19:05:53.942Z,99040.94
2023-03-07T19:07:56.941Z,99039.34
2023-03-07T19:09:58.557Z,99043.63
2023-03-07T19:12:00.128Z,99048.69
2023-03-07T19:14:01.977Z,99040.44
2023-03-07T19:16:05.695Z,99050.69
2023-03-07T19:18:07.323Z,99036.66
2023-03-07T19:20:10.176Z,99041.72
2023-03-07T19:22:11.680Z,99050.47
2023-03-07T19:24:14.682Z,99049.69
2023-03-07T19:26:17.941Z,99051.56
2023-03-07T19:28:19.501Z,99062.63
2023-03-07T19:30:21.288Z,99055.34
2023-03-07T19:32:24.742Z,99062.50
2023-03-07T19:34:26.432Z,99069.38
2023-03-07T19:36:29.474Z,99060.22
2023-03-07T19:38:31.146Z,99051.06
2023-03-07T19:40:34.111Z,99054.44
2023-03-07T19:42:35.729Z,99065.50
2023-03-07T19:44:37.503Z,99066.31
2023-03-07T19:46:39.078Z,99070.97
2023-03-07T19:48:40.975Z,99069.38
2023-03-07T19:50:42.584Z,99062.94
2023-03-07T19:52:44.271Z,99066.00
2023-03-07T19:54:46.004Z,99068.69
2023-03-07T19:56:49.411Z,99062.66
2023-03-07T19:58:51.259Z,99071.63
2023-03-07T20:00:52.811Z,99076.38
2023-03-07T20:02:54.563Z,99069.91
2023-03-07T20:04:56.343Z,99080.47
2023-03-07T20:06:57.979Z,99072.22
2023-03-07T20:09:00.594Z,99070.50
2023-03-07T20:11:10.582Z,99083.06
2023-03-07T20:13:13.572Z,99070.72
2023-03-07T20:15:15.304Z,99066.72
2023-03-07T20:17:16.856Z,99060.88
2023-03-07T20:19:18.627Z,99061.97
2023-03-07T20:21:21.548Z,99071.50
2023-03-07T20:23:23.103Z,99075.78
2023-03-07T20:25:27.940Z,99074.19
2023-03-07T20:27:29.910Z,99072.41
2023-03-07T20:29:32.816Z,99076.19
2023-03-07T20:31:35.288Z,99073.41
2023-03-07T20:33:38.499Z,99071.19
2023-03-07T20:35:40.062Z,99072.59
2023-03-07T20:37:41.684Z,99082.06
2023-03-07T20:39:43.347Z,99080.38
2023-03-07T20:41:44.950Z,99085.16
2023-03-07T20:43:47.202Z,99066.53
2023-03-07T20:45:50.157Z,99077.78
2023-03-07T20:47:51.750Z,99077.59
2023-03-07T20:49:53.385Z,99077.47
2023-03-07T20:51:58.137Z,99085.75
2023-03-07T20:54:01.413Z,99095.72
2023-03-07T20:56:03.942Z,99090.63
2023-03-07T20:58:05.556Z,99103.25
2023-03-07T21:00:08.641Z,99106.44
2023-03-07T21:02:11.640Z,99104.97
2023-03-07T21:04:15.256Z,99104.97
2023-03-07T21:06:17.413Z,99110.03
2023-03-07T21:08:18.998Z,99102.75
2023-03-07T21:10:20.629Z,99103.56
2023-03-07T21:12:22.134Z,99105.16
2023-03-07T21:14:23.673Z,99105.44
2023-03-07T21:16:25.997Z,99114.91
2023-03-07T21:18:29.468Z,99104.06
2023-03-07T21:20:33.960Z,99107.44
2023-03-07T21:22:35.571Z,99099.19
2023-03-07T21:24:37.124Z,99102.97
2023-03-07T21:26:38.977Z,99102.09
2023-03-07T21:28:43.357Z,99103.88
2023-03-07T21:30:44.917Z,99097.53
2023-03-07T21:32:46.542Z,99100.00
2023-03-07T21:34:49.613Z,99098.69
2023-03-07T21:36:53.949Z,99098.91
2023-03-07T21:38:55.911Z,99103.69
2023-03-07T21:40:59.966Z,99104.69
2023-03-07T21:43:01.519Z,99104.69
2023-03-07T21:45:03.219Z,99108.34
2023-03-07T21:47:04.924Z,99105.19
2023-03-07T21:49:06.560Z,99115.31
2023-03-07T21:51:10.363Z,99118.19
2023-03-07T21:53:12.256Z,99118.19
2023-03-07T21:55:13.959Z,99122.38
2023-03-07T21:57:15.641Z,99116.50
2023-03-07T21:59:18.255Z,99123.28
2023-03-07T22:01:23.400Z,99116.81
2023-03-07T22:03:26.422Z,99121.19
2023-03-07T22:05:28.283Z,99122.19
2023-03-07T22:07:31.612Z,99120.28
2023-03-07T22:09:33.950Z,99114.50
2023-03-07T22:11:35.507Z,99119.28
2023-03-07T22:13:38.556Z,99124.84
2023-03-07T22:15:40.102Z,99132.59
2023-03-07T22:17:41.721Z,99133.50
2023-03-07T22:19:43.237Z,99142.25
2023-03-07T22:21:44.844Z,99135.28
2023-03-07T22:23:49.495Z,99138.47
2023-03-07T22:25:51.201Z,99139.28
2023-03-07T22:27:52.753Z,99135.50
2023-03-07T22:29:54.307Z,99141.69
2023-03-07T22:31:55.916Z,99148.97
2023-03-07T22:33:58.420Z,99144.88
2023-03-07T22:36:02.386Z,99141.69
2023-03-07T22:38:04.048Z,99150.25
2023-03-07T22:40:09.168Z,99151.34
2023-03-07T22:42:10.841Z,99151.03
2023-03-07T22:44:12.377Z,99148.84
2023-03-07T22:46:14.276Z,99144.88
2023-03-07T22:48:16.273Z,99146.44
2023-03-07T22:50:18.043Z,99154.81
2023-03-07T22:52:19.622Z,99162.19
2023-03-07T22:54:21.301Z,99165.88
2023-03-07T22:56:26.079Z,99160.38
2023-03-07T22:58:31.878Z,99167.34
2023-03-07T23:00:33.587Z,99161.97
2023-03-07T23:02:35.120Z,99162.88
2023-03-07T23:04:36.788Z,99161.69
2023-03-07T23:06:40.347Z,99163.78
2023-03-07T23:08:44.377Z,99159.41
2023-03-07T23:10:46.045Z,99166.06
2023-03-07T23:12:50.730Z,99162.56
2023-03-07T23:14:52.760Z,99153.22
2023-03-07T23:16:54.672Z,99159.41
2023-03-07T23:18:58.526Z,99157.81
2023-03-07T23:21:01.834Z,99163.97
2023-03-07T23:23:03.379Z,99165.75
2023-03-07T23:25:05.429Z,99170.53
2023-03-07T23:27:07.105Z,99160.28
2023-03-07T23:29:10.441Z,99155.81
2023-03-07T23:31:16.463Z,99167.66
2023-03-07T23:33:18.221Z,99166.75
2023-03-07T23:35:19.786Z,99151.41
2023-03-07T23:37:21.469Z,99162.78
2023-03-07T23:39:23.008Z,99162.56
2023-03-07T23:41:25.206Z,99158.59
2023-03-07T23:43:27.128Z,99160.78
2023-03-07T23:45:30.374Z,99160.19
2023-03-07T23:47:31.943Z,99153.03
2023-03-07T23:49:33.655Z,99158.91
2023-03-07T23:51:38.217Z,99162.38
2023-03-07T23:53:39.770Z,99161.78
2023-03-07T23:55:41.960Z,99161.69
2023-03-07T23:57:43.509Z,99166.78
2023-03-07T23:59:47.454Z,99163.00
